Time,TemperatureF,DewpointF,PressureIn,WindDirection,WindDirectionDegrees,WindSpeedMPH,WindSpeedGustMPH,Humidity,HourlyPrecipIn,Conditions,Clouds,dailyrainin,SoftwareType,DateUTC
2013-09-25 00:23:00,54.0,52.0,-100.00,ENE,75,3.0,5.0,92,0.00,,,-99.99,,2013-09-25 05:23:00,
2013-09-25 00:44:00,54.0,52.0,-100.00,ENE,75,2.0,4.0,93,0.00,,,-99.99,,2013-09-25 05:44:00,
2013-09-25 01:23:00,51.0,50.0,-100.00,NE,40,0.0,1.0,93,0.00,,,-99.99,,2013-09-25 06:23:00,
2013-09-25 01:42:00,52.0,50.0,-100.00,NE,55,1.0,2.0,93,0.00,,,-99.99,,2013-09-25 06:42:00,
2013-09-25 02:22:00,52.0,50.0,-100.00,ENE,70,2.0,4.0,93,0.00,,,-99.99,,2013-09-25 07:22:00,
2013-09-25 02:42:00,53.0,51.0,-100.00,East,90,3.0,4.0,93,0.00,,,-99.99,,2013-09-25 07:42:00,
2013-09-25 03:21:00,52.0,50.0,-100.00,East,85,2.0,2.0,93,0.00,,,-99.99,,2013-09-25 08:21:00,
2013-09-25 03:42:00,51.0,49.0,-100.00,East,80,1.0,2.0,93,0.00,,,-99.99,,2013-09-25 08:42:00,
2013-09-25 04:22:00,48.0,46.0,-100.00,NW,315,0.0,1.0,93,0.00,,,-99.99,,2013-09-25 09:22:00,
2013-09-25 04:43:00,48.0,46.0,-100.00,ENE,60,1.0,1.0,93,0.00,,,-99.99,,2013-09-25 09:43:00,
2013-09-25 05:23:00,48.0,46.0,-100.00,ENE,60,1.0,2.0,93,0.00,,,-99.99,,2013-09-25 10:23:00,
2013-09-25 05:42:00,48.0,46.0,-100.00,ENE,65,2.0,3.0,93,0.00,,,-99.99,,2013-09-25 10:42:00,
2013-09-25 06:22:00,49.0,47.0,-100.00,ENE,70,4.0,4.0,93,0.00,,,-99.99,,2013-09-25 11:22:00,
2013-09-25 06:43:00,49.0,47.0,-100.00,ENE,75,3.0,4.0,93,0.00,,,-99.99,,2013-09-25 11:43:00,
2013-09-25 07:22:00,49.0,47.0,-100.00,ESE,105,0.0,2.0,93,0.00,,,-99.99,,2013-09-25 12:22:00,
2013-09-25 07:42:00,48.0,46.0,-100.00,ENE,60,0.0,0.0,93,0.00,,,-99.99,,2013-09-25 12:42:00,
2013-09-25 08:22:00,51.0,49.0,-100.00,East,90,2.0,3.0,93,0.00,,,-99.99,,2013-09-25 13:22:00,
2013-09-25 08:42:00,52.0,51.0,-100.00,East,90,3.0,4.0,93,0.00,,,-99.99,,2013-09-25 13:42:00,
2013-09-25 09:22:00,56.0,52.0,-100.00,East,95,4.0,7.0,87,0.00,,,-99.99,,2013-09-25 14:22:00,
2013-09-25 09:43:00,59.0,53.0,-100.00,ESE,105,4.0,7.0,79,0.00,,,-99.99,,2013-09-25 14:43:00,
2013-09-25 10:22:00,64.0,51.0,-100.00,SE,140,7.0,9.0,61,0.00,,,-99.99,,2013-09-25 15:22:00,
2013-09-25 11:23:00,69.0,49.0,-100.00,SE,125,7.0,12.0,48,0.00,,,-99.99,,2013-09-25 16:23:00,
2013-09-25 11:43:00,70.0,48.0,-100.00,ESE,115,9.0,15.0,45,0.00,,,-99.99,,2013-09-25 16:43:00,
2013-09-25 12:23:00,73.0,47.0,-100.00,ESE,105,10.0,18.0,40,0.00,,,-99.99,,2013-09-25 17:23:00,
2013-09-25 12:42:00,74.0,48.0,-100.00,ESE,120,10.0,17.0,39,0.00,,,-99.99,,2013-09-25 17:42:00,
2013-09-25 13:22:00,75.0,49.0,-100.00,SE,130,9.0,19.0,39,0.00,,,-99.99,,2013-09-25 18:22:00,
2013-09-25 13:42:00,76.0,49.0,-100.00,SE,135,7.0,17.0,38,0.00,,,-99.99,,2013-09-25 18:42:00,
2013-09-25 14:22:00,76.0,48.0,-100.00,SSE,150,10.0,19.0,37,0.00,,,-99.99,,2013-09-25 19:22:00,
2013-09-25 14:42:00,76.0,48.0,-100.00,SE,145,12.0,19.0,36,0.00,,,-99.99,,2013-09-25 19:42:00,
2013-09-25 15:22:00,78.0,47.0,-100.00,South,180,7.0,18.0,34,0.00,,,-99.99,,2013-09-25 20:22:00,
2013-09-25 15:42:00,78.0,47.0,-100.00,ESE,110,11.0,19.0,34,0.00,,,-99.99,,2013-09-25 20:42:00,
2013-09-25 16:22:00,78.0,47.0,-100.00,ESE,110,11.0,19.0,33,0.00,,,-99.99,,2013-09-25 21:22:00,
2013-09-25 16:44:00,78.0,47.0,-100.00,SE,125,8.0,17.0,33,0.00,,,-99.99,,2013-09-25 21:44:00,
2013-09-25 17:23:00,78.0,46.0,-100.00,SE,125,11.0,17.0,32,0.00,,,-99.99,,2013-09-25 22:23:00,
2013-09-25 17:42:00,77.0,47.0,-100.00,SE,125,11.0,17.0,33,0.00,,,-99.99,,2013-09-25 22:42:00,
2013-09-25 18:22:00,76.0,47.0,-100.00,SE,135,10.0,19.0,35,0.00,,,-99.99,,2013-09-25 23:22:00,
2013-09-25 18:42:00,75.0,47.0,-100.00,SE,130,9.0,16.0,37,0.00,,,-99.99,,2013-09-25 23:42:00,
2013-09-25 19:22:00,71.0,46.0,-100.00,SE,125,6.0,12.0,40,0.00,,,-99.99,,2013-09-26 00:22:00,
2013-09-25 19:42:00,68.0,47.0,-100.00,East,100,6.0,8.0,45,0.00,,,-99.99,,2013-09-26 00:42:00,
2013-09-25 20:22:00,66.0,49.0,-100.00,ESE,115,5.0,9.0,54,0.00,,,-99.99,,2013-09-26 01:22:00,
2013-09-25 20:42:00,65.0,50.0,-100.00,East,100,6.0,10.0,58,0.00,,,-99.99,,2013-09-26 01:42:00,
2013-09-25 21:21:00,65.0,53.0,-100.00,ESE,120,7.0,14.0,64,0.00,,,-99.99,,2013-09-26 02:21:00,
2013-09-25 22:22:00,64.0,54.0,-100.00,SE,130,7.0,13.0,70,0.00,,,-99.99,,2013-09-26 03:22:00,
2013-09-25 22:44:00,63.0,55.0,-100.00,ESE,115,6.0,10.0,73,0.00,,,-99.99,,2013-09-26 03:44:00,
2013-09-25 23:24:00,62.0,55.0,-100.00,ESE,110,7.0,11.0,78,0.00,,,-99.99,,2013-09-26 04:24:00,
2013-09-25 23:44:00,61.0,55.0,-100.00,ESE,110,7.0,12.0,79,0.00,,,-99.99,,2013-09-26 04:44:00,